Terminal Aerodrome Forecast
Issued by NWS Quad Cities IA IL

Home | Current Version | Previous Version | Text Only | Print | Product List | Glossary On
Versions: 1 2 3 4 5 6 7 8 9 10 11 12 13 14 15 16 17 18
259
FTUS43 KDVN 240520
TAFMLI
TAF
KMLI 240520Z 2406/2506 13010KT P6SM SKC
     FM240900 16004KT 5SM BR BKN250
     FM241400 23010KT P6SM BKN050
     FM250100 30008KT P6SM SKC=

USA.gov is the U.S. government's official web portal to all federal, state and local government web resources and services.